Time;durP1;ratioP1;P1;durP2;ratioP2;P2;SDS_P1;SDS_P2;PMS_P1;PMS_P2;Temp;Humidity;BMP_temperature;BMP_pressure;BME280_temperature;BME280_humidity;BME280_pressure;Samples;Min_cycle;Max_cycle;Signal;HPM_P1;HPM_P2
2022/11/16 00:02:08;;;;;;;;;;;;;;;;;;5054137;28;7406;-63
2022/11/16 00:04:33;;;;;;;;;;;;;;;;;;5053984;28;6896;-63
2022/11/16 00:07:01;;;;;;;;;;;;;;;;;;5053789;28;7151;-63
2022/11/16 00:09:28;;;;;;;;;;;;;;;;;;5054051;28;7095;-64
2022/11/16 00:11:56;;;;;;;;;;;;;;;;;;5054060;28;7096;-64
2022/11/16 00:14:23;;;;;;;;;;;;;;;;;;5054045;28;6961;-64
2022/11/16 00:16:49;;;;;;;;;;;;;;;;;;5053906;28;7083;-63
2022/11/16 00:19:14;;;;;;;;;;;;;;;;;;5053689;28;7214;-64
2022/11/16 00:21:41;;;;;;;;;;;;;;;;;;5054067;28;6995;-63
2022/11/16 00:24:06;;;;;;;;;;;;;;;;;;5053821;28;7889;-63
2022/11/16 00:26:32;;;;;;;;;;;;;;;;;;5053909;28;7222;-64
2022/11/16 00:28:57;;;;;;;;;;;;;;;;;;5053986;28;7330;-63
2022/11/16 00:31:23;;;;;;;;;;;;;;;;;;5053896;28;7332;-63
2022/11/16 00:33:50;;;;;;;;;;;;;;;;;;5053836;28;7447;-63
2022/11/16 00:36:16;;;;;;;;;;;;;;;;;;5053614;28;7413;-63
2022/11/16 00:38:43;;;;;;;;;;;;;;;;;;5053858;28;7404;-63
2022/11/16 00:41:08;;;;;;;;;;;;;;;;;;5053500;28;6858;-63
2022/11/16 00:43:34;;;;;;;;;;;;;;;;;;5053618;28;7398;-62
2022/11/16 00:46:00;;;;;;;;;;;;;;;;;;5052456;28;9372;-64
2022/11/16 00:48:25;;;;;;;;;;;;;;;;;;5053679;28;6949;-64
2022/11/16 00:50:51;;;;;;;;;;;;;;;;;;5054668;28;7460;-64
2022/11/16 00:53:18;;;;;;;;;;;;;;;;;;5057289;28;7070;-64
2022/11/16 00:55:44;;;;;;;;;;;;;;;;;;5057076;28;7103;-64
2022/11/16 00:58:11;;;;;;;;;;;;;;;;;;5057434;28;7216;-64
2022/11/16 01:00:37;;;;;;;;;;;;;;;;;;5057109;28;7654;-63
2022/11/16 01:03:03;;;;;;;;;;;;;;;;;;5057345;28;7141;-63
2022/11/16 01:05:29;;;;;;;;;;;;;;;;;;5056872;28;8183;-64
2022/11/16 01:07:56;;;;;;;;;;;;;;;;;;5057365;28;7493;-63
2022/11/16 01:10:23;;;;;;;;;;;;;;;;;;5057113;28;7512;-63
2022/11/16 01:12:50;;;;;;;;;;;;;;;;;;5057076;28;7094;-63
2022/11/16 01:15:17;;;;;;;;;;;;;;;;;;5056921;28;7230;-63
2022/11/16 01:17:43;;;;;;;;;;;;;;;;;;5056891;28;7191;-63
2022/11/16 01:20:12;;;;;;;;;;;;;;;;;;5056567;28;6941;-63
2022/11/16 01:22:39;;;;;;;;;;;;;;;;;;5056803;28;7728;-63
2022/11/16 01:25:05;;;;;;;;;;;;;;;;;;5056710;28;7463;-63
2022/11/16 01:27:31;;;;;;;;;;;;;;;;;;5056708;28;7419;-63
2022/11/16 01:29:57;;;;;;;;;;;;;;;;;;5056591;28;6977;-63
2022/11/16 01:32:23;;;;;;;;;;;;;;;;;;5056630;28;7513;-63
2022/11/16 01:34:49;;;;;;;;;;;;;;;;;;5056275;28;7340;-63
2022/11/16 01:37:16;;;;;;;;;;;;;;;;;;5056596;28;7314;-63
2022/11/16 01:39:42;;;;;;;;;;;;;;;;;;5056481;28;7136;-62
2022/11/16 01:42:16;;;;;;;;;;;;;;;;;;5056771;28;7370;-63
2022/11/16 01:44:42;;;;;;;;;;;;;;;;;;5056387;28;7415;-63
2022/11/16 01:47:10;;;;;;;;;;;;;;;;;;5056352;28;7113;-63
2022/11/16 01:49:40;;;;;;;;;;;;;;;;;;5056273;28;7283;-63
2022/11/16 01:52:09;;;;;;;;;;;;;;;;;;5056153;28;6982;-63
2022/11/16 01:54:37;;;;;;;;;;;;;;;;;;5056253;28;7412;-63
2022/11/16 01:57:06;;;;;;;;;;;;;;;;;;5056369;28;6938;-63
2022/11/16 01:59:32;;;;;;;;;;;;;;;;;;5056834;28;6899;-63
2022/11/16 02:02:00;;;;;;;;;;;;;;;;;;5056122;28;7110;-63
2022/11/16 02:04:26;;;;;;;;;;;;;;;;;;5056341;28;7145;-63
2022/11/16 02:07:01;;;;;;;;;;;;;;;;;;5055956;28;7040;-63
2022/11/16 02:09:54;;;;;;;;;;;;;;;;;;5055967;28;7082;-63
2022/11/16 02:12:28;;;;;;;;;;;;;;;;;;5055979;28;7140;-63
2022/11/16 02:15:12;;;;;;;;;;;;;;;;;;5055561;28;7046;-63
2022/11/16 02:17:38;;;;;;;;;;;;;;;;;;5056291;28;7353;-63
2022/11/16 02:20:04;;;;;;;;;;;;;;;;;;5055406;28;7909;-63
2022/11/16 02:22:48;;;;;;;;;;;;;;;;;;5056489;28;7077;-63
2022/11/16 02:25:26;;;;;;;;;;;;;;;;;;5055890;28;7241;-63
2022/11/16 02:27:51;;;;;;;;;;;;;;;;;;5055589;28;7330;-63
2022/11/16 02:30:19;;;;;;;;;;;;;;;;;;5055942;28;7402;-63
2022/11/16 02:32:58;;;;;;;;;;;;;;;;;;5055902;28;7401;-63
2022/11/16 02:35:31;;;;;;;;;;;;;;;;;;5055310;28;7025;-63
2022/11/16 02:38:02;;;;;;;;;;;;;;;;;;5055578;28;7355;-63
2022/11/16 02:40:30;;;;;;;;;;;;;;;;;;5055284;28;7139;-63
2022/11/16 02:57:48;;;;;;;;;;;;;;;;;;5055276;28;8458;-63
2022/11/16 03:00:16;;;;;;;;;;;;;;;;;;5054948;28;6822;-63
2022/11/16 03:03:02;;;;;;;;;;;;;;;;;;5054988;28;7087;-63
2022/11/16 03:05:35;;;;;;;;;;;;;;;;;;5024004;28;7167;-63
2022/11/16 03:08:24;;;;;;;;;;;;;;;;;;5054699;28;7087;-63
2022/11/16 03:13:40;;;;;;;;;;;;;;;;;;5054947;28;6800;-62
2022/11/16 03:16:16;;;;;;;;;;;;;;;;;;5054670;28;7068;-63
2022/11/16 03:18:45;;;;;;;;;;;;;;;;;;5055203;28;6935;-63
2022/11/16 03:21:32;;;;;;;;;;;;;;;;;;5054479;28;7182;-63
2022/11/16 03:23:57;;;;;;;;;;;;;;;;;;5054320;28;7189;-63
2022/11/16 03:26:28;;;;;;;;;;;;;;;;;;5054439;28;7099;-63
2022/11/16 03:29:07;;;;;;;;;;;;;;;;;;5054659;28;7100;-63
2022/11/16 03:31:45;;;;;;;;;;;;;;;;;;5054557;28;7570;-63
2022/11/16 03:34:15;;;;;;;;;;;;;;;;;;5054146;28;7208;-62
2022/11/16 03:36:44;;;;;;;;;;;;;;;;;;5054369;28;7440;-63
2022/11/16 03:39:16;;;;;;;;;;;;;;;;;;5054299;28;7066;-63
2022/11/16 03:41:44;;;;;;;;;;;;;;;;;;5054342;28;7167;-63
2022/11/16 03:44:12;;;;;;;;;;;;;;;;;;5053899;28;7016;-63
2022/11/16 03:46:40;;;;;;;;;;;;;;;;;;5054466;28;7140;-63
2022/11/16 03:49:05;;;;;;;;;;;;;;;;;;5052930;28;8763;-63
2022/11/16 03:51:31;;;;;;;;;;;;;;;;;;5053996;28;7195;-63
2022/11/16 03:53:56;;;;;;;;;;;;;;;;;;5054414;28;7172;-63
2022/11/16 03:56:22;;;;;;;;;;;;;;;;;;5053234;28;7170;-63
2022/11/16 03:58:48;;;;;;;;;;;;;;;;;;5054277;28;7171;-63
2022/11/16 04:01:13;;;;;;;;;;;;;;;;;;5054368;28;7202;-63
2022/11/16 04:03:39;;;;;;;;;;;;;;;;;;5054190;28;7344;-64
2022/11/16 04:25:39;;;;;;;;;;;;;;;;;;5055156;28;6891;-63
2022/11/16 04:28:15;;;;;;;;;;;;;;;;;;5056614;28;7172;-63
2022/11/16 04:39:02;;;;;;;;;;;;;;;;;;5057731;28;6798;-62
2022/11/16 04:44:13;;;;;;;;;;;;;;;;;;5057724;28;6913;-63
2022/11/16 04:49:22;;;;;;;;;;;;;;;;;;5057559;28;6802;-63
2022/11/16 04:51:48;;;;;;;;;;;;;;;;;;5057465;28;7367;-63
2022/11/16 04:54:14;;;;;;;;;;;;;;;;;;5056973;28;7294;-63
2022/11/16 04:56:40;;;;;;;;;;;;;;;;;;5057339;28;6932;-63
2022/11/16 04:59:06;;;;;;;;;;;;;;;;;;5057204;28;7167;-63
2022/11/16 05:04:16;;;;;;;;;;;;;;;;;;5057433;28;6794;-63
2022/11/16 05:06:41;;;;;;;;;;;;;;;;;;5056608;28;7418;-63
2022/11/16 05:09:08;;;;;;;;;;;;;;;;;;5057240;28;6993;-63
2022/11/16 05:11:33;;;;;;;;;;;;;;;;;;5056942;28;6995;-63
2022/11/16 05:13:59;;;;;;;;;;;;;;;;;;5057144;28;7520;-63
2022/11/16 05:16:24;;;;;;;;;;;;;;;;;;5056970;28;7403;-63
2022/11/16 05:21:36;;;;;;;;;;;;;;;;;;5056632;28;6793;-63
2022/11/16 05:26:46;;;;;;;;;;;;;;;;;;5056595;28;7008;-63
2022/11/16 05:29:12;;;;;;;;;;;;;;;;;;5056695;28;7142;-63
2022/11/16 05:31:37;;;;;;;;;;;;;;;;;;5056717;28;6903;-63
2022/11/16 05:34:03;;;;;;;;;;;;;;;;;;5056598;28;7141;-63
2022/11/16 05:36:29;;;;;;;;;;;;;;;;;;5056195;28;7606;-63
2022/11/16 05:38:56;;;;;;;;;;;;;;;;;;5056097;28;7278;-63
2022/11/16 05:41:22;;;;;;;;;;;;;;;;;;5055352;28;7079;-63
2022/11/16 05:43:48;;;;;;;;;;;;;;;;;;5056064;28;7137;-63
2022/11/16 05:46:13;;;;;;;;;;;;;;;;;;5056462;28;6915;-63
2022/11/16 05:48:39;;;;;;;;;;;;;;;;;;5056304;28;7237;-63
2022/11/16 05:51:04;;;;;;;;;;;;;;;;;;5056137;28;7987;-63
2022/11/16 05:53:30;;;;;;;;;;;;;;;;;;5056462;28;7544;-63
2022/11/16 05:55:56;;;;;;;;;;;;;;;;;;5056230;28;7171;-63
2022/11/16 05:58:22;;;;;;;;;;;;;;;;;;5056291;28;7083;-63
2022/11/16 06:00:48;;;;;;;;;;;;;;;;;;5056250;28;7074;-63
2022/11/16 06:03:14;;;;;;;;;;;;;;;;;;5056215;28;7229;-63
2022/11/16 06:05:40;;;;;;;;;;;;;;;;;;5056175;28;7261;-60
2022/11/16 06:08:05;;;;;;;;;;;;;;;;;;5055913;28;7219;-63
2022/11/16 06:10:31;;;;;;;;;;;;;;;;;;5055721;28;7288;-63
2022/11/16 06:12:56;;;;;;;;;;;;;;;;;;5055832;28;7067;-63
2022/11/16 06:15:22;;;;;;;;;;;;;;;;;;5056040;28;7276;-63
2022/11/16 06:17:47;;;;;;;;;;;;;;;;;;5055873;28;7124;-63
2022/11/16 06:20:13;;;;;;;;;;;;;;;;;;5055890;28;7266;-63
2022/11/16 06:22:39;;;;;;;;;;;;;;;;;;5054491;28;8928;-63
2022/11/16 06:25:06;;;;;;;;;;;;;;;;;;5055976;28;7173;-63
2022/11/16 06:27:31;;;;;;;;;;;;;;;;;;5055883;28;7426;-63
2022/11/16 06:29:57;;;;;;;;;;;;;;;;;;5055622;28;7060;-63
2022/11/16 06:32:22;;;;;;;;;;;;;;;;;;5055653;28;7302;-63
2022/11/16 06:34:48;;;;;;;;;;;;;;;;;;5055591;28;7186;-63
2022/11/16 06:37:14;;;;;;;;;;;;;;;;;;5055320;28;7643;-63
2022/11/16 06:39:40;;;;;;;;;;;;;;;;;;5055247;28;7003;-61
2022/11/16 06:42:06;;;;;;;;;;;;;;;;;;5055323;28;7185;-62
2022/11/16 06:44:32;;;;;;;;;;;;;;;;;;5054977;28;7127;-70
2022/11/16 06:46:57;;;;;;;;;;;;;;;;;;5070368;28;8391;-72
2022/11/16 06:49:23;;;;;;;;;;;;;;;;;;5053958;28;7377;-65
2022/11/16 06:51:48;;;;;;;;;;;;;;;;;;5055337;28;6943;-66
2022/11/16 06:54:14;;;;;;;;;;;;;;;;;;5053798;28;6983;-66
2022/11/16 06:56:39;;;;;;;;;;;;;;;;;;5054709;28;6823;-66
2022/11/16 06:59:05;;;;;;;;;;;;;;;;;;5054353;28;7640;-65
2022/11/16 07:01:30;;;;;;;;;;;;;;;;;;5052641;28;7375;-65
2022/11/16 07:03:59;;;;;;;;;;;;;;;;;;5048980;28;7385;-65
2022/11/16 07:06:33;;;;;;;;;;;;;;;;;;5053044;28;7043;-64
2022/11/16 07:09:04;;;;;;;;;;;;;;;;;;5053626;28;7090;-65
2022/11/16 07:11:31;;;;;;;;;;;;;;;;;;5053773;28;7307;-64
2022/11/16 07:13:57;;;;;;;;;;;;;;;;;;5054052;28;7074;-64
2022/11/16 07:16:23;;;;;;;;;;;;;;;;;;5054299;28;7040;-64
2022/11/16 07:18:50;;;;;;;;;;;;;;;;;;5054436;28;7271;-64
2022/11/16 07:21:16;;;;;;;;;;;;;;;;;;5054078;28;7196;-65
2022/11/16 07:23:42;;;;;;;;;;;;;;;;;;5054505;28;7094;-64
2022/11/16 07:26:09;;;;;;;;;;;;;;;;;;5054742;28;7087;-64
2022/11/16 07:28:35;;;;;;;;;;;;;;;;;;5054804;28;7230;-65
2022/11/16 07:31:01;;;;;;;;;;;;;;;;;;5055591;28;7292;-64
2022/11/16 07:33:27;;;;;;;;;;;;;;;;;;5056163;28;6979;-64
2022/11/16 07:35:52;;;;;;;;;;;;;;;;;;5065049;28;7173;-64
2022/11/16 07:38:18;;;;;;;;;;;;;;;;;;5075001;28;7414;-64
2022/11/16 07:40:44;;;;;;;;;;;;;;;;;;5059919;28;7106;-64
2022/11/16 07:43:10;;;;;;;;;;;;;;;;;;5054629;28;7338;-64
2022/11/16 07:45:36;;;;;;;;;;;;;;;;;;5054893;28;7108;-64
2022/11/16 07:48:01;;;;;;;;;;;;;;;;;;5054444;28;7149;-64
2022/11/16 07:50:27;;;;;;;;;;;;;;;;;;5053986;28;7723;-64
2022/11/16 07:52:56;;;;;;;;;;;;;;;;;;5054352;28;7189;-64
2022/11/16 07:55:24;;;;;;;;;;;;;;;;;;5053678;28;7242;-64
2022/11/16 07:57:50;;;;;;;;;;;;;;;;;;5054401;28;7191;-65
2022/11/16 08:00:15;;;;;;;;;;;;;;;;;;5056217;28;7059;-65
2022/11/16 08:02:41;;;;;;;;;;;;;;;;;;5058504;28;7206;-64
2022/11/16 08:05:07;;;;;;;;;;;;;;;;;;5057918;28;6962;-65
2022/11/16 08:07:34;;;;;;;;;;;;;;;;;;5058214;28;7146;-65
2022/11/16 08:10:00;;;;;;;;;;;;;;;;;;5058245;28;7266;-65
2022/11/16 08:12:25;;;;;;;;;;;;;;;;;;5058240;28;7408;-65
2022/11/16 08:14:51;;;;;;;;;;;;;;;;;;5058080;28;7096;-65
2022/11/16 08:17:17;;;;;;;;;;;;;;;;;;5058210;28;7083;-64
2022/11/16 08:19:42;;;;;;;;;;;;;;;;;;5057743;28;6988;-65
2022/11/16 08:22:08;;;;;;;;;;;;;;;;;;5058032;28;7287;-65
2022/11/16 08:24:34;;;;;;;;;;;;;;;;;;5057902;28;7365;-65
2022/11/16 08:27:00;;;;;;;;;;;;;;;;;;5057915;28;7457;-65
2022/11/16 08:29:26;;;;;;;;;;;;;;;;;;5057542;28;7942;-65
2022/11/16 08:31:52;;;;;;;;;;;;;;;;;;5056082;28;7438;-65
2022/11/16 08:34:17;;;;;;;;;;;;;;;;;;5056252;28;7152;-65
2022/11/16 08:36:43;;;;;;;;;;;;;;;;;;5057032;28;7126;-65
2022/11/16 08:39:08;;;;;;;;;;;;;;;;;;5051839;28;7435;-65
2022/11/16 08:41:36;;;;;;;;;;;;;;;;;;5037263;28;7162;-65
2022/11/16 08:44:02;;;;;;;;;;;;;;;;;;5036651;28;7207;-65
2022/11/16 08:46:28;;;;;;;;;;;;;;;;;;5037616;28;7380;-65
2022/11/16 08:48:57;;;;;;;;;;;;;;;;;;5056084;28;6850;-65
2022/11/16 08:51:24;;;;;;;;;;;;;;;;;;5056829;28;7205;-65
2022/11/16 08:53:54;;;;;;;;;;;;;;;;;;5056345;28;8528;-65
2022/11/16 08:56:20;;;;;;;;;;;;;;;;;;5050410;28;7195;-65
2022/11/16 08:58:45;;;;;;;;;;;;;;;;;;5037080;28;7026;-65
2022/11/16 09:01:18;;;;;;;;;;;;;;;;;;5036930;28;7100;-65
2022/11/16 09:03:43;;;;;;;;;;;;;;;;;;5036998;28;6891;-65
2022/11/16 09:06:10;;;;;;;;;;;;;;;;;;5036919;28;7349;-65
2022/11/16 09:08:37;;;;;;;;;;;;;;;;;;5051806;28;7181;-65
2022/11/16 09:11:13;;;;;;;;;;;;;;;;;;5055875;28;7378;-65
2022/11/16 09:13:39;;;;;;;;;;;;;;;;;;5056704;28;7191;-67
2022/11/16 09:16:05;;;;;;;;;;;;;;;;;;5056518;28;6881;-65
2022/11/16 09:18:31;;;;;;;;;;;;;;;;;;5056700;28;7029;-65
2022/11/16 09:20:56;;;;;;;;;;;;;;;;;;5056566;28;7183;-65
2022/11/16 09:23:22;;;;;;;;;;;;;;;;;;5056585;28;6980;-65
2022/11/16 09:26:08;;;;;;;;;;;;;;;;;;5056766;28;7119;-65
2022/11/16 09:28:46;;;;;;;;;;;;;;;;;;5037726;28;6830;-65
2022/11/16 09:31:36;;;;;;;;;;;;;;;;;;5052059;28;7101;-65
2022/11/16 09:34:36;;;;;;;;;;;;;;;;;;5035997;28;7060;-65
2022/11/16 09:37:22;;;;;;;;;;;;;;;;;;5048830;28;8660;-65
2022/11/16 09:43:38;;;;;;;;;;;;;;;;;;5050564;28;7353;-65
2022/11/16 09:46:23;;;;;;;;;;;;;;;;;;;;;
2022/11/16 09:49:33;;;;;;;;;;;;;;;;;;;;;
2022/11/16 09:52:25;;;;;;;;;;;;;;;;;;5053452;28;6906;-65
2022/11/16 09:55:28;;;;;;;;;;;;;;;;;;5053641;28;6899;-65
2022/11/16 09:58:36;;;;;;;;;;;;;;;;;;4993866;28;6894;-65
2022/11/16 10:01:32;;;;;;;;;;;;;;;;;;4914937;29;7077;-65
2022/11/16 10:04:46;;;;;;;;;;;;;;;;;;4880030;29;7204;-65
2022/11/16 10:10:51;;;;;;;;;;;;;;;;;;4879637;29;7311;-66
2022/11/16 10:13:41;;;;;;;;;;;;;;;;;;4877227;29;7071;-66
2022/11/16 10:16:33;;;;;;;;;;;;;;;;;;4879445;29;7286;-66
2022/11/16 10:19:05;;;;;;;;;;;;;;;;;;4908567;29;6846;-73
2022/11/16 10:21:43;;;;;;;;;;;;;;;;;;4916862;29;7295;-73
2022/11/16 10:24:17;;;;;;;;;;;;;;;;;;4896833;29;7082;-73
2022/11/16 10:26:43;;;;;;;;;;;;;;;;;;4897876;29;7463;-73
2022/11/16 10:29:11;;;;;;;;;;;;;;;;;;4897710;29;7123;-73
2022/11/16 10:31:37;;;;;;;;;;;;;;;;;;4922924;28;7214;-73
2022/11/16 10:34:05;;;;;;;;;;;;;;;;;;4970217;28;7175;-73
2022/11/16 10:36:35;;;;;;;;;;;;;;;;;;4993506;28;7177;-73
2022/11/16 10:39:01;;;;;;;;;;;;;;;;;;4993513;28;7077;-73
2022/11/16 10:41:42;;;;;;;;;;;;;;;;;;4993803;28;7177;-73
2022/11/16 10:44:15;;;;;;;;;;;;;;;;;;4999997;28;7293;-73
2022/11/16 10:46:48;;;;;;;;;;;;;;;;;;5051176;28;7024;-73
2022/11/16 10:49:43;;;;;;;;;;;;;;;;;;5075403;28;7428;-74
2022/11/16 10:52:08;;;;;;;;;;;;;;;;;;5012125;28;7241;-73
2022/11/16 10:54:39;;;;;;;;;;;;;;;;;;5052751;28;8586;-73
2022/11/16 10:57:16;;;;;;;;;;;;;;;;;;5054364;28;6869;-73
2022/11/16 10:59:43;;;;;;;;;;;;;;;;;;5054551;28;7131;-74
2022/11/16 11:02:27;;;;;;;;;;;;;;;;;;5053639;28;7158;-73
2022/11/16 11:05:11;;;;;;;;;;;;;;;;;;5053824;28;7148;-73
2022/11/16 11:07:38;;;;;;;;;;;;;;;;;;5054599;28;7071;-73
2022/11/16 11:10:20;;;;;;;;;;;;;;;;;;5054616;28;7489;-73
2022/11/16 11:12:59;;;;;;;;;;;;;;;;;;5053925;28;6865;-73
2022/11/16 11:15:26;;;;;;;;;;;;;;;;;;5053051;28;7075;-73
2022/11/16 11:18:10;;;;;;;;;;;;;;;;;;5053603;28;6830;-73
2022/11/16 11:20:37;;;;;;;;;;;;;;;;;;5053509;28;7084;-67
2022/11/16 11:23:11;;;;;;;;;;;;;;;;;;5053136;28;7175;-67
2022/11/16 11:25:50;;;;;;;;;;;;;;;;;;5053967;28;7099;-67
2022/11/16 11:28:37;;;;;;;;;;;;;;;;;;5052818;28;7117;-67
2022/11/16 11:31:08;;;;;;;;;;;;;;;;;;5054051;28;7148;-67
2022/11/16 11:33:42;;;;;;;;;;;;;;;;;;5053973;28;6964;-67
2022/11/16 11:36:19;;;;;;;;;;;;;;;;;;5053378;28;7070;-66
2022/11/16 11:39:00;;;;;;;;;;;;;;;;;;5053275;28;7263;-67
2022/11/16 11:41:46;;;;;;;;;;;;;;;;;;5053931;28;7453;-67
2022/11/16 11:44:11;;;;;;;;;;;;;;;;;;5050820;28;7102;-67
2022/11/16 11:46:43;;;;;;;;;;;;;;;;;;5053915;28;9161;-74
2022/11/16 11:49:11;;;;;;;;;;;;;;;;;;5053873;28;7155;-73
2022/11/16 11:51:41;;;;;;;;;;;;;;;;;;5054119;28;7080;-73
2022/11/16 11:54:15;;;;;;;;;;;;;;;;;;5053570;28;7309;-73
2022/11/16 11:56:41;;;;;;;;;;;;;;;;;;5053377;28;7115;-74
2022/11/16 11:59:15;;;;;;;;;;;;;;;;;;5053175;28;7206;-73
2022/11/16 12:01:54;;;;;;;;;;;;;;;;;;5053229;28;7516;-73
2022/11/16 12:04:38;;;;;;;;;;;;;;;;;;5053516;28;7197;-73
2022/11/16 12:07:18;;;;;;;;;;;;;;;;;;5052765;28;7116;-73
2022/11/16 12:09:43;;;;;;;;;;;;;;;;;;5052234;28;7152;-73
2022/11/16 12:12:27;;;;;;;;;;;;;;;;;;5053388;28;7162;-73
2022/11/16 12:15:02;;;;;;;;;;;;;;;;;;5053255;28;7156;-73
2022/11/16 12:17:40;;;;;;;;;;;;;;;;;;5052590;28;7088;-73
2022/11/16 12:20:28;;;;;;;;;;;;;;;;;;5053514;28;7255;-73
2022/11/16 12:23:16;;;;;;;;;;;;;;;;;;5053209;28;7193;-73
2022/11/16 12:25:54;;;;;;;;;;;;;;;;;;5053836;28;7511;-74
2022/11/16 12:28:20;;;;;;;;;;;;;;;;;;5053263;28;7416;-73
2022/11/16 12:31:12;;;;;;;;;;;;;;;;;;5053553;28;7142;-73
2022/11/16 12:34:00;;;;;;;;;;;;;;;;;;5053490;28;7416;-73
2022/11/16 12:36:44;;;;;;;;;;;;;;;;;;5032966;28;7222;-73
2022/11/16 12:39:42;;;;;;;;;;;;;;;;;;5053467;28;7468;-74
2022/11/16 12:42:26;;;;;;;;;;;;;;;;;;5030409;28;7086;-74
2022/11/16 12:45:02;;;;;;;;;;;;;;;;;;5053508;28;6917;-74
2022/11/16 12:47:28;;;;;;;;;;;;;;;;;;5055596;28;7439;-74
2022/11/16 12:50:07;;;;;;;;;;;;;;;;;;5057395;28;7163;-74
2022/11/16 12:53:09;;;;;;;;;;;;;;;;;;5057112;28;7428;-74
2022/11/16 12:55:37;;;;;;;;;;;;;;;;;;5015103;28;7278;-74
2022/11/16 12:58:14;;;;;;;;;;;;;;;;;;5015048;28;7302;-74
2022/11/16 13:00:42;;;;;;;;;;;;;;;;;;5015136;28;7156;-74
2022/11/16 13:03:21;;;;;;;;;;;;;;;;;;5014865;28;7181;-74
2022/11/16 13:05:56;;;;;;;;;;;;;;;;;;5015174;28;7412;-73
2022/11/16 13:08:22;;;;;;;;;;;;;;;;;;5014751;28;7057;-74
2022/11/16 13:10:53;;;;;;;;;;;;;;;;;;5014550;28;6970;-74
2022/11/16 13:13:24;;;;;;;;;;;;;;;;;;5014979;28;7136;-74
2022/11/16 13:15:52;;;;;;;;;;;;;;;;;;5015080;28;7107;-74
2022/11/16 13:18:20;;;;;;;;;;;;;;;;;;5014885;28;7135;-73
2022/11/16 13:20:52;;;;;;;;;;;;;;;;;;5014634;28;7189;-74
2022/11/16 13:23:30;;;;;;;;;;;;;;;;;;4998101;28;7257;-74
2022/11/16 13:26:14;;;;;;;;;;;;;;;;;;5014474;28;7416;-74
2022/11/16 13:28:48;;;;;;;;;;;;;;;;;;5019530;28;7163;-74
2022/11/16 13:31:20;;;;;;;;;;;;;;;;;;5056237;28;7080;-73
2022/11/16 13:33:49;;;;;;;;;;;;;;;;;;5056193;28;7177;-74
2022/11/16 13:36:33;;;;;;;;;;;;;;;;;;5055899;28;7009;-74
2022/11/16 13:38:58;;;;;;;;;;;;;;;;;;5056078;28;7387;-74
2022/11/16 13:41:25;;;;;;;;;;;;;;;;;;5056582;28;7144;-74
2022/11/16 13:43:51;;;;;;;;;;;;;;;;;;5055676;28;7748;-74
2022/11/16 13:46:16;;;;;;;;;;;;;;;;;;5055787;28;7235;-74
2022/11/16 13:48:45;;;;;;;;;;;;;;;;;;5055727;28;7308;-73
2022/11/16 13:51:22;;;;;;;;;;;;;;;;;;5055743;28;6977;-73
2022/11/16 13:53:50;;;;;;;;;;;;;;;;;;5056032;28;7058;-74
2022/11/16 13:56:18;;;;;;;;;;;;;;;;;;5056168;28;7454;-74
2022/11/16 13:58:49;;;;;;;;;;;;;;;;;;5056099;28;7242;-74
2022/11/16 14:01:15;;;;;;;;;;;;;;;;;;5055760;28;7191;-74
2022/11/16 14:03:42;;;;;;;;;;;;;;;;;;5056147;28;7127;-74
2022/11/16 14:06:23;;;;;;;;;;;;;;;;;;5056092;28;7433;-74
2022/11/16 14:08:52;;;;;;;;;;;;;;;;;;5055782;28;7141;-74
2022/11/16 14:11:36;;;;;;;;;;;;;;;;;;5055401;28;7214;-74
2022/11/16 14:14:09;;;;;;;;;;;;;;;;;;5055512;28;7183;-74
2022/11/16 14:16:48;;;;;;;;;;;;;;;;;;5055281;28;7234;-74
2022/11/16 14:19:32;;;;;;;;;;;;;;;;;;5055157;28;7158;-74
2022/11/16 14:22:04;;;;;;;;;;;;;;;;;;5055419;28;7238;-74
2022/11/16 14:24:30;;;;;;;;;;;;;;;;;;5055430;28;7205;-74
2022/11/16 14:27:28;;;;;;;;;;;;;;;;;;5055377;28;7391;-74
2022/11/16 14:30:12;;;;;;;;;;;;;;;;;;5021292;28;7290;-74
2022/11/16 14:32:46;;;;;;;;;;;;;;;;;;5055137;28;7192;-74
2022/11/16 14:35:29;;;;;;;;;;;;;;;;;;5054893;28;7076;-74
2022/11/16 14:38:00;;;;;;;;;;;;;;;;;;5054603;28;7127;-74
2022/11/16 14:40:26;;;;;;;;;;;;;;;;;;5054712;28;7054;-74
2022/11/16 14:43:01;;;;;;;;;;;;;;;;;;5056075;28;7235;-74
2022/11/16 14:45:29;;;;;;;;;;;;;;;;;;5056060;28;7392;-74
2022/11/16 14:48:01;;;;;;;;;;;;;;;;;;5054869;28;7196;-74
2022/11/16 14:50:29;;;;;;;;;;;;;;;;;;5055733;28;7335;-74
2022/11/16 14:53:02;;;;;;;;;;;;;;;;;;5056452;28;7409;-74
2022/11/16 14:55:27;;;;;;;;;;;;;;;;;;5055368;28;7744;-74
2022/11/16 14:58:16;;;;;;;;;;;;;;;;;;5055135;28;7930;-74
2022/11/16 15:03:57;;;;;;;;;;;;;;;;;;5056349;28;6804;-74
2022/11/16 15:06:40;;;;;;;;;;;;;;;;;;5055325;28;6929;-74
2022/11/16 15:09:06;;;;;;;;;;;;;;;;;;5055216;28;7067;-74
2022/11/16 15:14:30;;;;;;;;;;;;;;;;;;5055607;28;7501;-74
2022/11/16 15:16:58;;;;;;;;;;;;;;;;;;5056038;28;8023;-74
2022/11/16 15:19:24;;;;;;;;;;;;;;;;;;5055877;28;7448;-74
2022/11/16 15:21:51;;;;;;;;;;;;;;;;;;5055295;28;7399;-74
2022/11/16 15:24:21;;;;;;;;;;;;;;;;;;5055844;28;7352;-74
2022/11/16 15:26:46;;;;;;;;;;;;;;;;;;5055910;28;7168;-74
2022/11/16 15:29:16;;;;;;;;;;;;;;;;;;5055818;28;7202;-74
2022/11/16 15:31:43;;;;;;;;;;;;;;;;;;5055293;28;7237;-74
2022/11/16 15:34:18;;;;;;;;;;;;;;;;;;5054449;28;7436;-74
2022/11/16 15:36:45;;;;;;;;;;;;;;;;;;5055099;28;7487;-68
2022/11/16 15:39:14;;;;;;;;;;;;;;;;;;5054958;28;7168;-68
2022/11/16 15:41:41;;;;;;;;;;;;;;;;;;5054773;28;6965;-68
2022/11/16 15:44:07;;;;;;;;;;;;;;;;;;5055035;28;7456;-68
2022/11/16 15:46:34;;;;;;;;;;;;;;;;;;5054853;28;6956;-68
2022/11/16 15:49:00;;;;;;;;;;;;;;;;;;5054996;28;6827;-68
2022/11/16 15:51:32;;;;;;;;;;;;;;;;;;5055422;28;7189;-68
2022/11/16 15:54:12;;;;;;;;;;;;;;;;;;5055590;28;7506;-68
2022/11/16 15:56:39;;;;;;;;;;;;;;;;;;5054288;28;7296;-68
2022/11/16 15:59:23;;;;;;;;;;;;;;;;;;5054240;28;7365;-68
2022/11/16 16:01:49;;;;;;;;;;;;;;;;;;5050885;28;7321;-68
2022/11/16 16:04:16;;;;;;;;;;;;;;;;;;5053788;28;7101;-68
2022/11/16 16:06:47;;;;;;;;;;;;;;;;;;5054014;28;7410;-68
2022/11/16 16:09:32;;;;;;;;;;;;;;;;;;5052854;28;7180;-68
2022/11/16 16:12:17;;;;;;;;;;;;;;;;;;5053246;28;7082;-68
2022/11/16 16:14:43;;;;;;;;;;;;;;;;;;5053200;28;7122;-68
2022/11/16 16:17:10;;;;;;;;;;;;;;;;;;5048088;28;7236;-68
2022/11/16 16:19:42;;;;;;;;;;;;;;;;;;5042729;28;7144;-68
2022/11/16 16:22:24;;;;;;;;;;;;;;;;;;5036678;28;7180;-68
2022/11/16 16:24:50;;;;;;;;;;;;;;;;;;5037837;28;7201;-68
2022/11/16 16:27:17;;;;;;;;;;;;;;;;;;5037745;28;7052;-68
2022/11/16 16:29:44;;;;;;;;;;;;;;;;;;5039516;28;7025;-68
2022/11/16 16:32:27;;;;;;;;;;;;;;;;;;5056780;28;7105;-68
2022/11/16 16:34:58;;;;;;;;;;;;;;;;;;5056948;28;7131;-67
2022/11/16 16:37:28;;;;;;;;;;;;;;;;;;5057018;28;7274;-67
2022/11/16 16:39:54;;;;;;;;;;;;;;;;;;5057057;28;7075;-68
2022/11/16 16:42:20;;;;;;;;;;;;;;;;;;5057256;28;7320;-68
2022/11/16 16:44:46;;;;;;;;;;;;;;;;;;5056195;28;7105;-68
2022/11/16 16:47:12;;;;;;;;;;;;;;;;;;5054457;28;7375;-68
2022/11/16 16:49:38;;;;;;;;;;;;;;;;;;5057042;28;7363;-68
2022/11/16 16:52:05;;;;;;;;;;;;;;;;;;5050239;28;8595;-67
2022/11/16 16:54:31;;;;;;;;;;;;;;;;;;5036104;28;6841;-68
2022/11/16 16:57:00;;;;;;;;;;;;;;;;;;5047435;28;7036;-67
2022/11/16 17:02:28;;;;;;;;;;;;;;;;;;5037194;28;6980;-68
2022/11/16 17:04:55;;;;;;;;;;;;;;;;;;5037249;28;6969;-67
2022/11/16 17:07:21;;;;;;;;;;;;;;;;;;5037296;28;7221;-65
2022/11/16 17:09:50;;;;;;;;;;;;;;;;;;5036901;28;6866;-67
2022/11/16 17:12:16;;;;;;;;;;;;;;;;;;5037145;28;6847;-67
2022/11/16 17:15:11;;;;;;;;;;;;;;;;;;5037253;28;7361;-67
2022/11/16 17:17:40;;;;;;;;;;;;;;;;;;5036781;28;7642;-67
2022/11/16 17:20:10;;;;;;;;;;;;;;;;;;5036577;28;7625;-67
2022/11/16 17:22:36;;;;;;;;;;;;;;;;;;5037214;28;7006;-67
2022/11/16 17:25:16;;;;;;;;;;;;;;;;;;5036593;28;7933;-67
2022/11/16 17:27:47;;;;;;;;;;;;;;;;;;5036653;28;7018;-68
2022/11/16 17:30:21;;;;;;;;;;;;;;;;;;5042098;28;6928;-67
2022/11/16 17:32:46;;;;;;;;;;;;;;;;;;5055979;28;7143;-67
2022/11/16 17:35:12;;;;;;;;;;;;;;;;;;5056203;28;7082;-67
2022/11/16 17:37:38;;;;;;;;;;;;;;;;;;5056417;28;6959;-68
2022/11/16 17:40:35;;;;;;;;;;;;;;;;;;5056201;28;8354;-67
2022/11/16 17:55:36;;;;;;;;;;;;;;;;;;5031619;28;6629;-68
2022/11/16 17:58:02;;;;;;;;;;;;;;;;;;5012267;28;7375;-68
2022/11/16 18:00:27;;;;;;;;;;;;;;;;;;5011324;28;7200;-68
2022/11/16 18:02:53;;;;;;;;;;;;;;;;;;5011695;28;7052;-67
2022/11/16 18:05:18;;;;;;;;;;;;;;;;;;5011893;28;6980;-67
2022/11/16 18:07:44;;;;;;;;;;;;;;;;;;5010934;28;8708;-67
2022/11/16 18:10:09;;;;;;;;;;;;;;;;;;5011702;28;6896;-67
2022/11/16 18:12:37;;;;;;;;;;;;;;;;;;5011381;28;7398;-67
2022/11/16 18:15:02;;;;;;;;;;;;;;;;;;5011634;28;7170;-67
2022/11/16 18:17:28;;;;;;;;;;;;;;;;;;5011500;28;6842;-67
2022/11/16 18:19:53;;;;;;;;;;;;;;;;;;5011467;28;7253;-67
2022/11/16 18:22:19;;;;;;;;;;;;;;;;;;5011379;28;6998;-67
2022/11/16 18:24:45;;;;;;;;;;;;;;;;;;5011604;28;7178;-67
2022/11/16 18:27:11;;;;;;;;;;;;;;;;;;5011906;28;6931;-68
2022/11/16 18:29:36;;;;;;;;;;;;;;;;;;5011005;28;7490;-67
2022/11/16 18:32:02;;;;;;;;;;;;;;;;;;5011082;28;7080;-67
2022/11/16 18:34:27;;;;;;;;;;;;;;;;;;5011403;28;7409;-67
2022/11/16 18:39:55;;;;;;;;;;;;;;;;;;5030910;23;6722;-75
2022/11/16 18:42:21;;;;;;;;;;;;;;;;;;4968229;28;8485;-74
2022/11/16 18:44:52;;;;;;;;;;;;;;;;;;4971953;28;7139;-76
2022/11/16 18:47:17;;;;;;;;;;;;;;;;;;4972151;28;7221;-75
2022/11/16 18:59:07;;;;;;;;;;;;;;;;;;4959506;28;6681;-74
2022/11/16 19:01:33;;;;;;;;;;;;;;;;;;4977937;28;7194;-74
2022/11/16 19:04:35;;;;;;;;;;;;;;;;;;4992186;28;7260;-75
2022/11/16 19:07:01;;;;;;;;;;;;;;;;;;4981050;28;7053;-74
2022/11/16 19:09:37;;;;;;;;;;;;;;;;;;4978220;28;7191;-74